Time;durP1;ratioP1;P1;durP2;ratioP2;P2;SDS_P1;SDS_P2;PMS_P1;PMS_P2;Temp;Humidity;BMP_temperature;BMP_pressure;BME280_temperature;BME280_humidity;BME280_pressure;Samples;Min_cycle;Max_cycle;Signal;HPM_P1;HPM_P2
2023/06/15 00:00:42;;;;;;;12.80;7.70;;;;;;;40.77;35.26;101207.47;4976635;28;21011;-85
2023/06/15 00:03:08;;;;;;;17.20;8.97;;;;;;;40.78;35.20;101219.13;4975240;28;20422;-85
2023/06/15 00:05:34;;;;;;;22.87;9.23;;;;;;;40.59;35.39;101207.75;4974894;28;20497;-85
2023/06/15 00:08:00;;;;;;;17.20;9.27;;;;;;;41.01;34.87;101215.19;4974875;28;20826;-85
2023/06/15 00:10:26;;;;;;;25.43;9.40;;;;;;;41.02;34.98;101208.63;4974800;28;20514;-83
2023/06/15 00:12:52;;;;;;;14.90;7.80;;;;;;;40.83;35.13;101207.31;4974823;28;20517;-83
2023/06/15 00:15:18;;;;;;;15.33;8.20;;;;;;;41.05;34.72;101210.69;4974994;28;20249;-83
2023/06/15 00:17:44;;;;;;;17.97;8.63;;;;;;;41.09;34.76;101208.16;4974693;28;20721;-83
2023/06/15 00:20:13;;;;;;;24.97;9.83;;;;;;;40.32;36.24;101206.03;4974507;28;20478;-83
2023/06/15 00:22:41;;;;;;;24.73;10.83;;;;;;;40.93;34.85;101215.97;4974547;28;20423;-83
2023/06/15 00:25:10;;;;;;;18.30;9.03;;;;;;;40.73;34.75;101208.41;4974649;28;20426;-83
2023/06/15 00:27:36;;;;;;;17.80;7.83;;;;;;;40.88;33.97;101207.94;4974421;28;20509;-83
2023/06/15 00:30:03;;;;;;;14.10;8.40;;;;;;;40.91;34.36;101201.91;4974451;28;20458;-83
2023/06/15 00:32:29;;;;;;;29.37;7.70;;;;;;;40.64;34.85;101202.97;4974230;28;20513;-83
2023/06/15 00:34:55;;;;;;;21.63;9.20;;;;;;;40.37;35.02;101203.16;4974078;28;20478;-83
2023/06/15 00:37:21;;;;;;;19.93;9.23;;;;;;;40.61;34.39;101194.63;4974206;28;20272;-83
2023/06/15 00:39:47;;;;;;;13.80;8.13;;;;;;;40.84;34.31;101196.09;4974211;28;20474;-83
2023/06/15 00:42:13;;;;;;;18.40;10.13;;;;;;;40.84;33.42;101187.94;4974151;28;20430;-83
2023/06/15 00:44:39;;;;;;;15.90;8.23;;;;;;;40.26;34.83;101205.38;4974181;28;20318;-83
2023/06/15 00:47:05;;;;;;;14.70;8.50;;;;;;;40.61;34.53;101189.97;4973870;28;20415;-83
2023/06/15 00:49:32;;;;;;;16.73;8.40;;;;;;;40.87;34.32;101181.06;4974051;28;20513;-83
2023/06/15 00:52:00;;;;;;;16.73;6.97;;;;;;;40.74;34.28;101183.59;4974089;28;20426;-83
2023/06/15 00:54:27;;;;;;;15.23;8.87;;;;;;;40.78;34.07;101187.28;4975547;28;20414;-83
2023/06/15 00:56:54;;;;;;;17.40;8.40;;;;;;;40.79;34.35;101180.72;4973951;28;20944;-83
2023/06/15 00:59:21;;;;;;;16.73;7.67;;;;;;;41.02;34.06;101186.88;4973803;28;20932;-83
2023/06/15 01:01:54;;;;;;;17.50;8.03;;;;;;;40.83;33.92;101180.09;4973946;28;20430;-83
2023/06/15 01:04:27;;;;;;;14.17;8.20;;;;;;;40.89;33.62;101176.13;4973792;28;20485;-83
2023/06/15 01:07:01;;;;;;;19.57;9.07;;;;;;;40.81;34.05;101177.69;4973765;28;20450;-83
2023/06/15 01:09:30;;;;;;;19.87;7.80;;;;;;;40.79;34.06;101177.22;4973741;28;20935;-83
2023/06/15 01:11:58;;;;;;;18.73;8.70;;;;;;;40.82;34.35;101168.41;4973715;28;20426;-83
2023/06/15 01:14:27;;;;;;;19.00;10.33;;;;;;;40.50;35.23;101167.72;4973696;28;20489;-83
2023/06/15 01:17:01;;;;;;;15.70;7.60;;;;;;;40.55;34.61;101164.84;4973878;28;20434;-83
2023/06/15 01:19:37;;;;;;;29.97;9.63;;;;;;;40.81;34.35;101159.44;4973546;28;20469;-83
2023/06/15 01:22:20;;;;;;;22.47;9.17;;;;;;;40.84;34.06;101147.13;4973557;28;21004;-83
2023/06/15 01:24:58;;;;;;;17.10;8.40;;;;;;;40.81;33.87;101155.94;4973364;28;20461;-84
2023/06/15 01:27:25;;;;;;;19.10;9.27;;;;;;;40.44;34.46;101147.22;4973390;28;20434;-84
2023/06/15 01:29:52;;;;;;;17.97;8.77;;;;;;;40.65;34.10;101147.44;4973236;28;20461;-83
2023/06/15 01:32:20;;;;;;;21.27;8.50;;;;;;;40.55;34.58;101147.75;4974934;28;20789;-83
2023/06/15 01:34:46;;;;;;;22.30;8.13;;;;;;;40.60;34.45;101149.53;4989693;28;20480;-83
2023/06/15 01:37:12;;;;;;;16.90;8.83;;;;;;;40.54;34.14;101144.22;4976360;28;20819;-83
2023/06/15 01:39:39;;;;;;;20.30;9.00;;;;;;;40.84;34.35;101146.34;4975938;28;20465;-83
2023/06/15 01:42:06;;;;;;;15.87;7.63;;;;;;;40.89;33.75;101144.25;4976192;28;20436;-83
2023/06/15 01:44:33;;;;;;;16.03;7.73;;;;;;;40.89;33.95;101136.09;4976409;28;20436;-83
2023/06/15 01:46:58;;;;;;;15.13;8.83;;;;;;;40.88;34.11;101139.13;4976487;28;20421;-83
2023/06/15 01:49:25;;;;;;;15.37;7.40;;;;;;;40.97;33.76;101138.03;4976165;28;20417;-83
2023/06/15 01:51:51;;;;;;;21.70;9.13;;;;;;;40.98;33.81;101131.47;4976238;28;20192;-83
2023/06/15 01:57:40;;;;;;;18.83;8.10;;;;;;;40.78;34.25;101135.63;4993173;28;20833;-83
2023/06/15 02:00:08;;;;;;;21.23;10.40;;;;;;;41.01;33.98;101141.72;4976021;28;20984;-83
2023/06/15 02:02:35;;;;;;;17.43;9.87;;;;;;;40.91;34.13;101139.31;4975945;28;20497;-83
2023/06/15 02:05:03;;;;;;;22.00;8.93;;;;;;;40.99;33.77;101137.72;4975935;28;20524;-83
2023/06/15 02:07:29;;;;;;;20.90;9.97;;;;;;;40.98;33.67;101145.09;4975912;28;20432;-83
2023/06/15 02:09:55;;;;;;;17.00;7.50;;;;;;;40.67;34.22;101139.75;4975985;28;20417;-83
2023/06/15 02:12:21;;;;;;;26.03;9.37;;;;;;;40.80;33.96;101138.81;4975909;28;20484;-83
2023/06/15 02:14:48;;;;;;;17.20;8.77;;;;;;;40.74;34.53;101134.66;4976174;28;20457;-83
2023/06/15 02:17:14;;;;;;;13.93;7.27;;;;;;;40.80;33.80;101138.81;4975909;28;20425;-83
2023/06/15 02:19:40;;;;;;;15.87;8.60;;;;;;;40.96;33.85;101124.75;4993301;28;20456;-83
2023/06/15 02:22:06;;;;;;;13.80;7.53;;;;;;;40.89;33.74;101129.88;4976125;28;20474;-83
2023/06/15 02:24:32;;;;;;;21.97;9.67;;;;;;;40.95;33.84;101125.88;4993521;28;20417;-83
2023/06/15 02:26:58;;;;;;;13.67;8.33;;;;;;;40.97;34.12;101129.09;4975519;28;20417;-83
2023/06/15 02:29:24;;;;;;;17.27;7.87;;;;;;;41.08;33.57;101130.34;4975688;28;20233;-83
2023/06/15 02:31:50;;;;;;;15.00;7.77;;;;;;;40.79;33.85;101129.06;4975666;28;20666;-83
2023/06/15 02:34:16;;;;;;;28.00;11.50;;;;;;;40.80;34.08;101127.94;4972297;28;20520;-83
2023/06/15 02:36:43;;;;;;;25.63;9.57;;;;;;;40.65;34.12;101122.19;4972679;28;20973;-83
2023/06/15 02:39:10;;;;;;;23.93;7.53;;;;;;;40.80;33.68;101118.97;4972376;28;20259;-83
2023/06/15 02:41:36;;;;;;;20.47;9.20;;;;;;;40.74;34.13;101126.47;4972415;28;20419;-83
2023/06/15 02:44:03;;;;;;;21.30;8.00;;;;;;;40.48;35.00;101131.91;4972258;28;20422;-83
2023/06/15 02:46:29;;;;;;;17.37;10.43;;;;;;;40.64;34.96;101132.25;4972382;28;20501;-83
2023/06/15 02:48:56;;;;;;;18.50;8.50;;;;;;;40.66;34.86;101129.22;4972289;28;20926;-84
2023/06/15 02:51:23;;;;;;;19.13;10.03;;;;;;;40.68;35.15;101127.75;4973192;28;20424;-83
2023/06/15 02:53:49;;;;;;;20.57;9.63;;;;;;;40.32;34.96;101129.91;4976304;28;20457;-83
2023/06/15 02:56:19;;;;;;;24.03;10.80;;;;;;;40.36;34.89;101122.75;4976188;28;20422;-83
2023/06/15 02:58:47;;;;;;;22.73;8.67;;;;;;;40.61;34.59;101130.16;4976186;28;20422;-83
2023/06/15 03:01:16;;;;;;;21.73;8.07;;;;;;;40.55;34.69;101126.78;4976096;28;20520;-83
2023/06/15 03:03:43;;;;;;;12.10;7.10;;;;;;;40.31;35.69;101131.03;4976004;28;20496;-83
2023/06/15 03:06:10;;;;;;;15.60;7.23;;;;;;;40.28;35.39;101140.63;4976075;28;20418;-85
2023/06/15 03:08:37;;;;;;;17.90;7.83;;;;;;;40.16;36.04;101132.28;4975965;28;20418;-85
2023/06/15 03:11:03;;;;;;;20.07;8.17;;;;;;;40.11;36.61;101140.59;4977670;28;20800;-85
2023/06/15 03:13:30;;;;;;;24.40;11.37;;;;;;;39.78;37.21;101140.09;4975934;28;20426;-85
2023/06/15 03:15:56;;;;;;;20.00;9.90;;;;;;;39.82;36.35;101136.44;4975883;28;20410;-85
2023/06/15 03:18:22;;;;;;;32.73;9.20;;;;;;;39.85;36.59;101124.16;4975828;28;20414;-85
2023/06/15 03:20:52;;;;;;;24.70;10.00;;;;;;;40.07;37.03;101124.09;4975589;28;20999;-85
2023/06/15 03:23:19;;;;;;;25.03;11.67;;;;;;;40.15;36.65;101128.78;4975798;28;20421;-85
2023/06/15 03:25:45;;;;;;;21.90;8.90;;;;;;;40.22;36.70;101134.53;4975557;28;20433;-85
2023/06/15 03:28:11;;;;;;;27.37;12.57;;;;;;;40.15;36.57;101128.78;4975663;28;20417;-85
2023/06/15 03:30:40;;;;;;;27.10;14.40;;;;;;;40.16;37.16;101135.81;4976177;28;20418;-85
2023/06/15 03:33:07;;;;;;;22.07;9.20;;;;;;;39.95;37.17;101127.38;4977235;28;21021;-84
2023/06/15 03:35:34;;;;;;;19.00;9.50;;;;;;;40.12;36.89;101134.81;4978613;28;20444;-85
2023/06/15 03:38:00;;;;;;;14.70;9.90;;;;;;;40.23;36.88;101127.19;4996470;28;20406;-85
2023/06/15 03:40:28;;;;;;;19.63;10.03;;;;;;;40.28;36.23;101133.28;4978580;28;20453;-85
2023/06/15 03:42:54;;;;;;;20.63;10.73;;;;;;;39.95;37.49;101134.72;4978509;28;20515;-85
2023/06/15 03:45:20;;;;;;;14.80;8.63;;;;;;;40.15;36.99;101141.56;4978433;28;20441;-85
2023/06/15 03:47:47;;;;;;;21.87;10.27;;;;;;;40.13;37.05;101141.84;4978689;28;20611;-85
2023/06/15 03:50:13;;;;;;;20.17;9.67;;;;;;;40.26;36.49;101130.06;4978341;28;20202;-85
2023/06/15 03:52:39;;;;;;;21.50;9.83;;;;;;;40.37;36.07;101137.94;4978445;28;20493;-85
2023/06/15 03:55:05;;;;;;;20.57;8.57;;;;;;;39.99;36.91;101133.00;4978451;28;20512;-85
2023/06/15 03:57:31;;;;;;;16.80;9.23;;;;;;;40.23;36.41;101141.56;4978189;28;20445;-85
2023/06/15 03:59:57;;;;;;;20.97;10.17;;;;;;;40.33;36.33;101140.50;4978134;28;20496;-85
2023/06/15 04:02:23;;;;;;;29.00;10.13;;;;;;;40.43;36.49;101147.53;4977665;28;20229;-85
2023/06/15 04:04:52;;;;;;;18.70;9.97;;;;;;;40.28;36.94;101138.72;4978198;28;20480;-84
2023/06/15 04:07:19;;;;;;;32.87;11.60;;;;;;;40.25;36.76;101142.06;4978066;28;20449;-85
2023/06/15 04:09:45;;;;;;;29.63;9.77;;;;;;;40.30;36.60;101143.84;4978084;28;20421;-85
2023/06/15 04:12:11;;;;;;;17.83;8.63;;;;;;;39.76;36.79;101149.34;4977897;28;20484;-85
2023/06/15 04:14:37;;;;;;;16.80;8.40;;;;;;;40.29;36.77;101144.94;4978164;28;20669;-85
2023/06/15 04:17:03;;;;;;;19.33;9.90;;;;;;;40.18;36.60;101139.00;4978389;28;20193;-85
2023/06/15 04:19:29;;;;;;;25.10;10.07;;;;;;;40.24;36.64;101142.38;4977850;28;20186;-85
2023/06/15 04:21:55;;;;;;;20.80;9.20;;;;;;;40.25;36.12;101139.34;4977682;28;20441;-85
2023/06/15 04:24:21;;;;;;;29.57;10.63;;;;;;;40.07;36.56;101153.97;4978153;28;20804;-85
2023/06/15 04:26:47;;;;;;;20.20;9.80;;;;;;;40.26;36.38;101149.09;4977852;28;20857;-86
2023/06/15 04:29:13;;;;;;;26.07;10.57;;;;;;;40.10;36.66;101161.53;4977991;28;20488;-85
2023/06/15 04:31:39;;;;;;;19.00;8.97;;;;;;;40.28;36.50;101173.25;4977699;28;20425;-85
2023/06/15 04:34:06;;;;;;;31.57;11.23;;;;;;;40.27;36.68;101161.59;4974009;28;20237;-84
2023/06/15 04:36:34;;;;;;;17.37;10.10;;;;;;;40.05;37.21;101163.56;4974426;28;20477;-85
2023/06/15 04:39:00;;;;;;;24.00;9.63;;;;;;;40.32;36.64;101160.63;4974371;28;20425;-84
2023/06/15 04:41:27;;;;;;;29.23;11.83;;;;;;;40.39;37.02;101162.88;4974849;28;20458;-85
2023/06/15 04:43:53;;;;;;;18.73;9.47;;;;;;;40.34;37.30;101171.19;4974284;28;20513;-85
2023/06/15 04:46:19;;;;;;;30.83;11.20;;;;;;;40.35;37.23;101167.34;4973762;28;20481;-85
2023/06/15 04:48:47;;;;;;;26.77;11.80;;;;;;;40.48;37.09;101166.44;4973779;28;20454;-86
2023/06/15 04:51:14;;;;;;;26.00;10.27;;;;;;;40.55;37.26;101174.94;4975639;28;20544;-84
2023/06/15 04:53:43;;;;;;;16.63;9.10;;;;;;;40.49;37.00;101176.19;4974149;28;20419;-84
2023/06/15 04:56:10;;;;;;;18.23;9.07;;;;;;;40.41;36.90;101168.81;4974071;28;20430;-85
2023/06/15 04:58:36;;;;;;;20.20;9.40;;;;;;;40.20;36.66;101169.38;4990097;28;20418;-86
2023/06/15 05:01:02;;;;;;;22.10;10.00;;;;;;;39.58;37.89;101180.19;4974086;28;20532;-85
2023/06/15 05:03:28;;;;;;;18.40;9.27;;;;;;;39.66;37.80;101184.13;4973743;28;20175;-83
2023/06/15 05:05:54;;;;;;;25.60;11.57;;;;;;;39.57;38.06;101175.88;4975289;28;20402;-84
2023/06/15 05:08:20;;;;;;;31.77;11.23;;;;;;;39.41;38.66;101185.50;4973819;28;20457;-84
2023/06/15 05:10:46;;;;;;;21.73;9.90;;;;;;;39.17;39.05;101194.78;4973634;28;20442;-83
2023/06/15 05:13:12;;;;;;;25.67;10.13;;;;;;;39.25;38.54;101190.53;4973471;28;20230;-83
2023/06/15 05:15:38;;;;;;;28.30;11.37;;;;;;;39.10;39.20;101191.66;4973173;28;20531;-84
2023/06/15 05:18:04;;;;;;;18.53;9.60;;;;;;;38.79;39.32;101196.13;4973633;28;20422;-84
2023/06/15 05:20:30;;;;;;;28.57;10.60;;;;;;;39.38;38.41;101194.28;4973867;28;20458;-84
2023/06/15 05:22:56;;;;;;;18.80;9.50;;;;;;;39.20;38.76;101196.88;4973488;28;20175;-84
2023/06/15 05:25:22;;;;;;;18.73;9.20;;;;;;;39.63;37.99;101201.84;4973481;28;20418;-84
2023/06/15 05:27:48;;;;;;;23.50;9.17;;;;;;;39.54;38.72;101209.09;4973070;28;20780;-84
2023/06/15 05:30:15;;;;;;;21.80;10.33;;;;;;;39.36;39.12;101212.81;4973336;28;20550;-84
2023/06/15 05:32:41;;;;;;;21.83;11.40;;;;;;;39.40;38.72;101213.78;4973039;28;20508;-84
2023/06/15 05:35:08;;;;;;;16.13;10.17;;;;;;;39.67;37.93;101205.53;4972964;28;20564;-84
2023/06/15 05:37:34;;;;;;;16.73;8.97;;;;;;;39.80;37.41;101206.56;4961674;28;20463;-84
2023/06/15 05:40:02;;;;;;;16.00;9.90;;;;;;;39.70;37.79;101209.53;4972341;28;20517;-84
2023/06/15 05:42:29;;;;;;;18.10;8.87;;;;;;;39.55;38.25;101208.00;4973157;28;20421;-84
2023/06/15 05:44:55;;;;;;;17.63;10.13;;;;;;;39.37;38.34;101215.19;4973076;28;20439;-81
2023/06/15 05:47:21;;;;;;;19.43;10.17;;;;;;;39.80;37.65;101213.91;4972974;28;20954;-82
2023/06/15 05:49:47;;;;;;;28.07;11.10;;;;;;;39.52;38.57;101224.88;4973074;28;20418;-86
2023/06/15 05:52:17;;;;;;;23.93;11.00;;;;;;;39.39;38.52;101223.03;4973118;28;20419;-85
2023/06/15 05:54:46;;;;;;;32.17;11.23;;;;;;;39.36;38.82;101212.81;4972153;28;20435;-85
2023/06/15 05:57:13;;;;;;;32.30;13.73;;;;;;;39.44;38.86;101222.91;4972138;28;20489;-83
2023/06/15 05:59:39;;;;;;;27.33;9.87;;;;;;;39.16;38.84;101214.06;4967653;28;20948;-83
2023/06/15 06:02:05;;;;;;;20.30;9.07;;;;;;;39.46;38.88;101217.97;4973425;28;20515;-81
2023/06/15 06:04:31;;;;;;;26.77;11.50;;;;;;;38.70;40.05;101215.81;4962330;28;20498;-83
2023/06/15 06:06:57;;;;;;;21.43;10.50;;;;;;;38.88;39.70;101224.16;4972229;28;20465;-87
2023/06/15 06:09:23;;;;;;;22.33;12.60;;;;;;;39.42;38.62;101225.13;4972292;28;20446;-84
2023/06/15 06:11:49;;;;;;;25.43;11.57;;;;;;;39.41;38.77;101220.81;4971542;28;20204;-83
2023/06/15 06:14:15;;;;;;;27.93;12.10;;;;;;;39.54;38.43;101230.81;4964167;28;20183;-85
2023/06/15 06:16:42;;;;;;;24.00;10.57;;;;;;;39.48;38.12;101242.91;4971868;28;20500;-85
2023/06/15 06:19:08;;;;;;;16.60;9.60;;;;;;;39.30;38.70;101247.41;4970765;28;21111;-85
2023/06/15 06:21:34;;;;;;;18.53;10.87;;;;;;;39.00;38.99;101246.13;4971883;28;20465;-85
2023/06/15 06:24:02;;;;;;;31.83;11.90;;;;;;;39.65;38.21;101250.38;4972409;28;20414;-85
2023/06/15 06:26:29;;;;;;;24.20;11.23;;;;;;;39.72;38.22;101258.94;4961549;28;20415;-88
2023/06/15 06:28:55;;;;;;;30.80;13.20;;;;;;;39.59;38.26;101246.16;4954032;29;20430;-86
2023/06/15 06:31:21;;;;;;;23.43;11.23;;;;;;;39.46;38.25;101259.50;4953383;29;20916;-85
2023/06/15 06:33:47;;;;;;;25.50;11.60;;;;;;;39.32;38.66;101257.94;4969020;28;20486;-84
2023/06/15 06:36:13;;;;;;;25.97;8.97;;;;;;;39.47;38.27;101271.97;4969191;28;20840;-83
2023/06/15 06:38:39;;;;;;;18.83;8.80;;;;;;;39.71;38.03;101274.41;4968603;28;20514;-83
2023/06/15 06:41:05;;;;;;;16.73;8.70;;;;;;;39.57;37.91;101270.13;4969077;28;20455;-83
2023/06/15 06:43:31;;;;;;;24.57;9.97;;;;;;;39.34;38.16;101274.72;4969105;28;20454;-84
2023/06/15 06:45:57;;;;;;;14.43;8.70;;;;;;;39.33;38.57;101271.19;4968765;28;20513;-84
2023/06/15 06:48:23;;;;;;;19.37;9.00;;;;;;;39.68;38.02;101279.66;4970289;28;20207;-85
2023/06/15 06:50:49;;;;;;;26.13;11.27;;;;;;;39.79;37.90;101282.94;4971154;28;20186;-85
2023/06/15 06:53:15;;;;;;;17.83;10.07;;;;;;;39.77;37.76;101291.38;4970272;28;20206;-86
2023/06/15 06:55:43;;;;;;;18.63;12.50;;;;;;;39.67;37.66;101275.34;4970461;28;20174;-85
2023/06/15 06:58:09;;;;;;;22.80;10.10;;;;;;;39.38;38.37;101297.44;4971918;28;20769;-85
2023/06/15 07:00:35;;;;;;;21.80;8.63;;;;;;;39.54;38.34;101295.19;4969311;28;20470;-85
2023/06/15 07:03:00;;;;;;;20.10;8.60;;;;;;;39.70;37.59;101282.84;4970954;28;20395;-86
2023/06/15 07:05:26;;;;;;;21.43;9.17;;;;;;;39.83;37.26;101302.91;4970203;28;20210;-85
2023/06/15 07:07:52;;;;;;;17.80;10.93;;;;;;;39.94;37.07;101304.28;4971315;28;20234;-86
2023/06/15 07:10:18;;;;;;;21.73;8.70;;;;;;;39.89;36.72;101305.19;4970455;28;20802;-86
2023/06/15 07:12:44;;;;;;;20.03;8.70;;;;;;;40.11;36.95;101314.50;4971905;28;20245;-87
2023/06/15 07:15:10;;;;;;;18.77;9.80;;;;;;;40.24;36.52;101314.41;4972137;28;20206;-86
2023/06/15 07:17:36;;;;;;;17.17;8.73;;;;;;;40.23;36.95;101315.50;4972215;28;20418;-86
2023/06/15 07:20:02;;;;;;;16.53;8.00;;;;;;;40.38;36.51;101316.22;4970794;28;20480;-86
2023/06/15 07:22:28;;;;;;;19.30;10.43;;;;;;;40.26;36.36;101320.31;4971771;28;20179;-87
2023/06/15 07:24:55;;;;;;;23.93;10.27;;;;;;;40.29;36.42;101325.16;4971981;28;20505;-86
2023/06/15 07:27:21;;;;;;;18.40;9.03;;;;;;;40.32;36.05;101321.00;4988137;28;20548;-86
2023/06/15 07:29:47;;;;;;;19.77;10.63;;;;;;;40.43;36.30;101332.41;4972079;28;20505;-86
2023/06/15 07:32:14;;;;;;;18.47;9.20;;;;;;;40.46;35.72;101342.66;4971879;28;20434;-86
2023/06/15 07:34:40;;;;;;;21.03;8.93;;;;;;;40.61;36.10;101345.00;4972006;28;20474;-86
2023/06/15 07:37:06;;;;;;;20.23;9.70;;;;;;;40.65;36.01;101345.97;4972532;28;20477;-85
2023/06/15 07:39:33;;;;;;;19.07;8.67;;;;;;;40.67;35.87;101343.75;4975328;28;20414;-84
2023/06/15 07:42:00;;;;;;;22.20;9.17;;;;;;;40.66;35.75;101342.13;4975434;28;20460;-85
2023/06/15 07:44:26;;;;;;;20.00;9.93;;;;;;;40.63;35.88;101345.47;4975296;28;20802;-85
2023/06/15 07:46:52;;;;;;;18.40;12.23;;;;;;;40.20;36.59;101356.88;4975119;28;20925;-85
2023/06/15 07:49:18;;;;;;;21.10;9.20;;;;;;;40.36;36.32;101359.22;4975338;28;20282;-84
2023/06/15 07:51:45;;;;;;;21.67;10.90;;;;;;;40.32;36.09;101355.53;4975311;28;20442;-85
2023/06/15 07:54:11;;;;;;;19.10;10.23;;;;;;;40.54;35.58;101353.59;4975236;28;20430;-85
2023/06/15 07:56:37;;;;;;;16.03;10.40;;;;;;;40.39;35.46;101358.59;4975102;28;20486;-85
2023/06/15 07:59:03;;;;;;;19.93;9.03;;;;;;;40.05;36.46;101361.91;4975104;28;20809;-85
2023/06/15 08:01:29;;;;;;;18.57;8.17;;;;;;;40.22;36.36;101362.84;4975301;28;21125;-86
2023/06/15 08:03:55;;;;;;;22.87;10.40;;;;;;;40.42;35.89;101366.94;4974968;28;20858;-88
2023/06/15 08:06:21;;;;;;;18.30;8.87;;;;;;;40.51;35.68;101370.53;4975010;28;20430;-88
2023/06/15 08:08:47;;;;;;;19.83;9.47;;;;;;;40.59;35.71;101369.00;4975735;28;20418;-88
2023/06/15 08:11:13;;;;;;;27.60;11.90;;;;;;;40.61;36.04;101369.47;4974927;28;20175;-85
2023/06/15 08:13:39;;;;;;;18.37;9.63;;;;;;;40.27;36.09;101375.50;4974791;28;20423;-84
2023/06/15 08:16:08;;;;;;;14.30;8.53;;;;;;;40.65;35.87;101380.53;4974721;28;20425;-84
2023/06/15 08:18:34;;;;;;;17.97;9.40;;;;;;;40.67;35.55;101373.66;4976459;28;20402;-84
2023/06/15 08:21:00;;;;;;;25.57;10.43;;;;;;;40.75;34.98;101374.81;4974583;28;20462;-84
2023/06/15 08:23:27;;;;;;;17.07;9.30;;;;;;;40.60;35.35;101380.66;4974899;28;20447;-84
2023/06/15 08:25:52;;;;;;;26.33;10.63;;;;;;;40.55;35.48;101385.13;4974673;28;20520;-84
2023/06/15 08:28:19;;;;;;;21.60;9.60;;;;;;;40.64;35.54;101379.75;4974707;28;20534;-84
2023/06/15 08:30:45;;;;;;;17.77;9.90;;;;;;;40.58;35.59;101380.16;4976029;28;20678;-84
2023/06/15 08:33:11;;;;;;;20.90;9.30;;;;;;;40.21;36.25;101374.03;4976474;28;20479;-89
2023/06/15 08:35:37;;;;;;;15.83;8.63;;;;;;;40.51;35.51;101377.88;4977797;28;20429;-84
2023/06/15 08:38:03;;;;;;;21.10;10.83;;;;;;;40.54;35.62;101369.91;4977565;28;20452;-85
2023/06/15 08:40:29;;;;;;;21.60;11.70;;;;;;;40.47;35.72;101379.63;4977689;28;20463;-84
2023/06/15 08:42:58;;;;;;;26.83;10.70;;;;;;;40.27;35.58;101376.31;4977619;28;20891;-85
2023/06/15 08:45:33;;;;;;;27.50;11.00;;;;;;;40.35;36.30;101373.94;4977513;28;20429;-85
2023/06/15 08:48:02;;;;;;;26.27;11.27;;;;;;;40.25;36.33;101375.00;4977485;28;20416;-82
2023/06/15 08:50:28;;;;;;;17.50;9.50;;;;;;;40.62;35.63;101381.94;4977451;28;20409;-82
2023/06/15 08:52:55;;;;;;;21.73;8.43;;;;;;;40.65;35.86;101373.19;4977368;28;20476;-86
2023/06/15 08:55:22;;;;;;;25.40;10.70;;;;;;;40.62;35.31;101373.00;4977567;28;20979;-85
2023/06/15 08:57:48;;;;;;;18.30;8.83;;;;;;;40.61;35.50;101385.00;4977286;28;21025;-83
2023/06/15 09:00:16;;;;;;;24.30;8.97;;;;;;;40.81;34.81;101379.00;4977156;28;20461;-84
2023/06/15 09:02:47;;;;;;;17.10;8.53;;;;;;;40.75;35.09;101375.59;4977094;28;20801;-83
2023/06/15 09:05:13;;;;;;;13.10;7.73;;;;;;;40.94;35.00;101378.09;4977044;28;20422;-83
2023/06/15 09:07:39;;;;;;;15.30;8.83;;;;;;;40.82;34.72;101377.88;4976930;28;20449;-83
2023/06/15 09:10:16;;;;;;;24.00;9.53;;;;;;;40.67;35.28;101389.97;4976813;28;20417;-83
2023/06/15 09:12:47;;;;;;;17.63;10.07;;;;;;;40.90;34.98;101390.75;4994973;28;20802;-83
2023/06/15 09:15:27;;;;;;;16.13;8.03;;;;;;;40.97;34.85;101391.09;4977017;28;20492;-84
2023/06/15 09:18:01;;;;;;;27.17;11.43;;;;;;;40.59;35.48;101389.94;4976852;28;20421;-85
2023/06/15 09:20:30;;;;;;;24.33;11.30;;;;;;;40.41;35.73;101383.56;4994596;28;20495;-83
2023/06/15 09:23:01;;;;;;;24.17;8.23;;;;;;;40.86;35.07;101388.94;4976524;28;20983;-83
2023/06/15 09:25:29;;;;;;;22.20;8.57;;;;;;;40.85;35.64;101373.72;4976662;28;20417;-82
2023/06/15 09:27:59;;;;;;;18.23;9.40;;;;;;;40.81;35.62;101377.06;4976597;28;20429;-80
2023/06/15 09:30:38;;;;;;;20.87;9.10;;;;;;;40.76;35.66;101373.69;4976427;28;20878;-82
2023/06/15 09:33:15;;;;;;;19.47;9.93;;;;;;;40.92;34.93;101385.00;4976206;28;20874;-81
2023/06/15 09:35:57;;;;;;;18.80;9.30;;;;;;;40.83;34.67;101376.78;4976529;28;20421;-81
2023/06/15 09:38:24;;;;;;;20.30;10.50;;;;;;;41.13;34.81;101377.03;4976453;28;20469;-80
2023/06/15 09:40:50;;;;;;;16.70;9.33;;;;;;;41.13;34.62;101375.16;4976395;28;20456;-80
2023/06/15 09:43:19;;;;;;;19.87;9.40;;;;;;;41.22;34.86;101373.22;4976423;28;20475;-81
2023/06/15 09:45:52;;;;;;;19.70;9.30;;;;;;;41.37;34.37;101372.00;4976299;28;20433;-81
2023/06/15 09:48:18;;;;;;;22.67;9.50;;;;;;;41.31;34.65;101375.94;4993893;28;20440;-80
2023/06/15 09:50:48;;;;;;;18.47;9.50;;;;;;;40.37;35.74;101379.88;5008714;28;20449;-81
2023/06/15 09:53:16;;;;;;;23.00;9.90;;;;;;;40.28;35.59;101372.47;4976055;28;20421;-82
2023/06/15 09:55:45;;;;;;;26.60;11.37;;;;;;;40.24;35.56;101374.19;4976100;28;20425;-80
2023/06/15 09:58:11;;;;;;;16.10;8.67;;;;;;;40.47;35.55;101379.63;4976120;28;20479;-80
2023/06/15 10:00:38;;;;;;;17.50;10.07;;;;;;;40.49;35.42;101369.25;4975752;28;20467;-79
2023/06/15 10:03:08;;;;;;;16.83;9.57;;;;;;;40.36;35.55;101372.81;4976067;28;20488;-79
2023/06/15 10:05:39;;;;;;;16.57;10.90;;;;;;;40.06;36.13;101366.25;5008427;28;20445;-85
2023/06/15 10:08:08;;;;;;;16.90;9.43;;;;;;;39.89;36.86;101364.97;4976375;28;20413;-84
2023/06/15 10:10:37;;;;;;;16.43;9.60;;;;;;;39.75;37.08;101361.50;4976037;28;20445;-82
2023/06/15 10:13:12;;;;;;;23.10;11.07;;;;;;;39.88;37.34;101349.78;4975773;28;20417;-82
2023/06/15 10:15:41;;;;;;;21.77;9.50;;;;;;;39.97;37.30;101356.09;4976111;28;20978;-81
2023/06/15 10:18:10;;;;;;;14.73;8.70;;;;;;;40.26;37.14;101354.84;4975640;28;20449;-83
2023/06/15 10:20:37;;;;;;;18.77;8.73;;;;;;;40.31;37.46;101348.50;4975721;28;20461;-83
2023/06/15 10:23:08;;;;;;;18.93;9.97;;;;;;;39.93;37.78;101349.66;5008134;28;20994;-82
2023/06/15 10:25:36;;;;;;;23.30;10.57;;;;;;;40.03;38.00;101349.41;4993483;28;20398;-82
2023/06/15 10:28:09;;;;;;;20.23;9.90;;;;;;;39.94;37.59;101337.69;4975704;28;20426;-81
2023/06/15 10:30:48;;;;;;;23.90;10.03;;;;;;;40.12;37.46;101351.41;4994598;28;20476;-81
2023/06/15 10:33:35;;;;;;;16.87;9.17;;;;;;;40.29;37.23;101346.88;4992922;28;20508;-83
2023/06/15 10:36:09;;;;;;;12.63;7.30;;;;;;;40.48;36.71;101345.91;4975521;28;20976;-81
2023/06/15 10:38:42;;;;;;;15.90;9.17;;;;;;;40.37;36.80;101358.13;4960330;28;20449;-82
2023/06/15 10:41:09;;;;;;;19.93;10.10;;;;;;;39.74;37.90;101349.03;4975363;28;20495;-81
2023/06/15 10:43:35;;;;;;;13.60;10.10;;;;;;;40.35;36.78;101346.75;4991432;28;20441;-81
2023/06/15 10:46:02;;;;;;;24.50;11.00;;;;;;;40.17;36.41;101349.38;4975588;28;20947;-81
2023/06/15 10:48:30;;;;;;;14.60;8.23;;;;;;;40.40;36.58;101346.63;4975380;28;20432;-82
2023/06/15 10:51:06;;;;;;;16.30;9.03;;;;;;;40.29;36.60;101338.72;4993219;28;20765;-81
2023/06/15 10:53:50;;;;;;;20.17;10.90;;;;;;;40.11;37.21;101344.38;4975350;28;20413;-78
2023/06/15 10:56:20;;;;;;;19.50;11.23;;;;;;;40.31;37.75;101359.38;4993158;28;20402;-79
2023/06/15 10:58:56;;;;;;;22.63;10.17;;;;;;;40.13;37.41;101348.38;4975346;28;20926;-78
2023/06/15 11:01:26;;;;;;;27.83;10.30;;;;;;;40.38;37.58;101352.34;4992933;28;20483;-78
2023/06/15 11:03:56;;;;;;;19.27;12.03;;;;;;;40.42;37.76;101356.06;4959419;28;20436;-80
2023/06/15 11:06:33;;;;;;;24.97;11.20;;;;;;;40.55;37.44;101349.75;4959648;28;20479;-79
2023/06/15 11:09:12;;;;;;;30.10;11.80;;;;;;;40.15;37.52;101351.59;4959184;28;20939;-79
2023/06/15 11:11:39;;;;;;;26.47;13.27;;;;;;;40.31;37.25;101348.50;4960042;28;20413;-79
2023/06/15 11:14:23;;;;;;;22.57;12.10;;;;;;;39.66;38.30;101342.44;4996181;28;20771;-81
2023/06/15 11:17:06;;;;;;;34.57;14.27;;;;;;;39.79;38.41;101339.97;4979075;28;20425;-81
2023/06/15 11:19:40;;;;;;;16.93;9.87;;;;;;;39.80;38.00;101339.66;4978858;28;20453;-80